sensor_id;sensor_type;location;lat;lon;timestamp;pressure;altitude;pressure_sealevel;temperature;humidity
29839;BME280;18669;53.356;-1.464;2023-03-16T00:01:58;99652.16;;;6.81;100.00
29839;BME280;18669;53.356;-1.464;2023-03-16T00:04:43;99642.53;;;6.84;100.00
29839;BME280;18669;53.356;-1.464;2023-03-16T00:07:31;99639.97;;;6.81;100.00
29839;BME280;18669;53.356;-1.464;2023-03-16T00:10:16;99653.81;;;6.85;100.00
29839;BME280;18669;53.356;-1.464;2023-03-16T00:13:01;99634.75;;;6.80;100.00
29839;BME280;18669;53.356;-1.464;2023-03-16T00:15:54;99638.66;;;7.03;100.00
29839;BME280;18669;53.356;-1.464;2023-03-16T00:18:39;99622.28;;;6.93;100.00
29839;BME280;18669;53.356;-1.464;2023-03-16T00:21:24;99619.59;;;6.97;100.00
29839;BME280;18669;53.356;-1.464;2023-03-16T00:24:08;99611.00;;;6.91;100.00
29839;BME280;18669;53.356;-1.464;2023-03-16T00:26:53;99598.66;;;6.97;100.00
29839;BME280;18669;53.356;-1.464;2023-03-16T00:29:38;99597.66;;;7.03;100.00
29839;BME280;18669;53.356;-1.464;2023-03-16T00:32:26;99592.16;;;7.15;100.00
29839;BME280;18669;53.356;-1.464;2023-03-16T00:35:11;99584.47;;;7.08;100.00
29839;BME280;18669;53.356;-1.464;2023-03-16T00:37:56;99584.44;;;7.09;100.00
29839;BME280;18669;53.356;-1.464;2023-03-16T00:40:41;99586.28;;;7.06;100.00
29839;BME280;18669;53.356;-1.464;2023-03-16T00:43:26;99567.88;;;7.09;100.00
29839;BME280;18669;53.356;-1.464;2023-03-16T00:46:14;99576.25;;;7.23;100.00
29839;BME280;18669;53.356;-1.464;2023-03-16T00:48:58;99563.44;;;7.12;100.00
29839;BME280;18669;53.356;-1.464;2023-03-16T00:51:43;99552.97;;;7.12;100.00
29839;BME280;18669;53.356;-1.464;2023-03-16T00:54:30;99549.25;;;7.23;100.00
29839;BME280;18669;53.356;-1.464;2023-03-16T00:57:19;99547.44;;;7.25;100.00
29839;BME280;18669;53.356;-1.464;2023-03-16T01:00:05;99528.22;;;7.26;100.00
29839;BME280;18669;53.356;-1.464;2023-03-16T01:03:00;99531.91;;;7.19;100.00
29839;BME280;18669;53.356;-1.464;2023-03-16T01:05:45;99527.38;;;7.25;100.00
29839;BME280;18669;53.356;-1.464;2023-03-16T01:08:30;99522.16;;;7.25;100.00
29839;BME280;18669;53.356;-1.464;2023-03-16T01:11:19;99520.06;;;7.40;100.00
29839;BME280;18669;53.356;-1.464;2023-03-16T01:14:04;99502.75;;;7.34;100.00
29839;BME280;18669;53.356;-1.464;2023-03-16T01:16:48;99500.13;;;7.34;100.00
29839;BME280;18669;53.356;-1.464;2023-03-16T01:19:35;99501.69;;;7.41;100.00
29839;BME280;18669;53.356;-1.464;2023-03-16T01:22:21;99479.09;;;7.39;100.00
29839;BME280;18669;53.356;-1.464;2023-03-16T01:25:06;99493.91;;;7.40;100.00
29839;BME280;18669;53.356;-1.464;2023-03-16T01:27:51;99472.91;;;7.41;100.00
29839;BME280;18669;53.356;-1.464;2023-03-16T01:30:37;99455.50;;;7.40;100.00
29839;BME280;18669;53.356;-1.464;2023-03-16T01:33:23;99467.50;;;7.47;100.00
29839;BME280;18669;53.356;-1.464;2023-03-16T01:36:12;99470.72;;;7.59;100.00
29839;BME280;18669;53.356;-1.464;2023-03-16T01:38:58;99461.09;;;7.59;100.00
29839;BME280;18669;53.356;-1.464;2023-03-16T01:41:44;99453.16;;;7.63;100.00
29839;BME280;18669;53.356;-1.464;2023-03-16T01:44:52;99443.25;;;7.74;100.00
29839;BME280;18669;53.356;-1.464;2023-03-16T01:47:38;99436.63;;;7.60;100.00
29839;BME280;18669;53.356;-1.464;2023-03-16T01:50:23;99430.56;;;7.58;100.00
29839;BME280;18669;53.356;-1.464;2023-03-16T01:53:08;99426.81;;;7.69;100.00
29839;BME280;18669;53.356;-1.464;2023-03-16T01:55:54;99416.34;;;7.69;100.00
29839;BME280;18669;53.356;-1.464;2023-03-16T01:58:41;99416.94;;;7.77;100.00
29839;BME280;18669;53.356;-1.464;2023-03-16T02:01:27;99420.44;;;7.78;100.00
29839;BME280;18669;53.356;-1.464;2023-03-16T02:04:21;99405.41;;;7.84;100.00
29839;BME280;18669;53.356;-1.464;2023-03-16T02:07:08;99408.03;;;7.84;100.00
29839;BME280;18669;53.356;-1.464;2023-03-16T02:09:56;99405.97;;;7.96;100.00
29839;BME280;18669;53.356;-1.464;2023-03-16T02:12:42;99401.03;;;7.85;100.00
29839;BME280;18669;53.356;-1.464;2023-03-16T02:15:27;99396.72;;;7.84;100.00
29839;BME280;18669;53.356;-1.464;2023-03-16T02:18:13;99392.78;;;7.99;100.00
29839;BME280;18669;53.356;-1.464;2023-03-16T02:24:05;99384.09;;;7.97;100.00
29839;BME280;18669;53.356;-1.464;2023-03-16T02:26:55;99380.22;;;8.10;100.00
29839;BME280;18669;53.356;-1.464;2023-03-16T02:32:46;99386.31;;;8.11;100.00
29839;BME280;18669;53.356;-1.464;2023-03-16T02:35:32;99369.84;;;8.07;100.00
29839;BME280;18669;53.356;-1.464;2023-03-16T02:38:18;99365.31;;;8.12;100.00
29839;BME280;18669;53.356;-1.464;2023-03-16T02:41:17;99369.91;;;8.32;100.00
29839;BME280;18669;53.356;-1.464;2023-03-16T02:44:14;99367.44;;;8.28;100.00
29839;BME280;18669;53.356;-1.464;2023-03-16T02:47:34;99350.63;;;8.35;100.00
29839;BME280;18669;53.356;-1.464;2023-03-16T02:50:20;99351.34;;;8.12;100.00
29839;BME280;18669;53.356;-1.464;2023-03-16T02:53:05;99353.78;;;8.18;100.00
29839;BME280;18669;53.356;-1.464;2023-03-16T02:55:52;99358.94;;;8.21;100.00
29839;BME280;18669;53.356;-1.464;2023-03-16T02:58:36;99350.50;;;8.11;100.00
29839;BME280;18669;53.356;-1.464;2023-03-16T03:01:22;99358.88;;;8.23;100.00
29839;BME280;18669;53.356;-1.464;2023-03-16T03:04:07;99348.38;;;8.23;100.00
29839;BME280;18669;53.356;-1.464;2023-03-16T03:06:52;99345.81;;;8.21;100.00
29839;BME280;18669;53.356;-1.464;2023-03-16T03:09:37;99343.84;;;8.29;100.00
29839;BME280;18669;53.356;-1.464;2023-03-16T03:12:22;99341.97;;;8.33;100.00
29839;BME280;18669;53.356;-1.464;2023-03-16T03:15:08;99345.28;;;8.38;100.00
29839;BME280;18669;53.356;-1.464;2023-03-16T03:17:53;99342.66;;;8.38;100.00
29839;BME280;18669;53.356;-1.464;2023-03-16T03:20:38;99331.50;;;8.31;100.00
29839;BME280;18669;53.356;-1.464;2023-03-16T03:23:22;99346.03;;;8.42;100.00
29839;BME280;18669;53.356;-1.464;2023-03-16T03:26:07;99334.91;;;8.35;100.00
29839;BME280;18669;53.356;-1.464;2023-03-16T03:28:52;99343.41;;;8.42;100.00
29839;BME280;18669;53.356;-1.464;2023-03-16T03:31:37;99346.72;;;8.48;100.00
29839;BME280;18669;53.356;-1.464;2023-03-16T03:34:22;99336.13;;;8.51;100.00
29839;BME280;18669;53.356;-1.464;2023-03-16T03:37:07;99344.91;;;8.50;100.00
29839;BME280;18669;53.356;-1.464;2023-03-16T03:39:52;99325.72;;;8.50;100.00
29839;BME280;18669;53.356;-1.464;2023-03-16T03:42:38;99332.38;;;8.60;100.00
29839;BME280;18669;53.356;-1.464;2023-03-16T03:45:22;99330.75;;;8.56;100.00
29839;BME280;18669;53.356;-1.464;2023-03-16T03:48:07;99329.69;;;8.62;100.00
29839;BME280;18669;53.356;-1.464;2023-03-16T03:50:53;99329.75;;;8.60;100.00
29839;BME280;18669;53.356;-1.464;2023-03-16T03:53:38;99328.69;;;8.66;100.00
29839;BME280;18669;53.356;-1.464;2023-03-16T03:56:23;99329.50;;;8.66;100.00
29839;BME280;18669;53.356;-1.464;2023-03-16T03:59:08;99322.41;;;8.70;100.00
29839;BME280;18669;53.356;-1.464;2023-03-16T04:01:53;99319.81;;;8.70;100.00
29839;BME280;18669;53.356;-1.464;2023-03-16T04:04:39;99323.06;;;8.77;100.00
29839;BME280;18669;53.356;-1.464;2023-03-16T04:07:23;99319.72;;;8.72;100.00
29839;BME280;18669;53.356;-1.464;2023-03-16T04:10:09;99323.97;;;8.76;100.00
29839;BME280;18669;53.356;-1.464;2023-03-16T04:12:58;99318.31;;;8.88;100.00
29839;BME280;18669;53.356;-1.464;2023-03-16T04:15:43;99321.41;;;8.74;100.00
29839;BME280;18669;53.356;-1.464;2023-03-16T04:18:30;99319.50;;;8.79;100.00
29839;BME280;18669;53.356;-1.464;2023-03-16T04:21:22;99313.38;;;8.79;100.00
29839;BME280;18669;53.356;-1.464;2023-03-16T04:24:07;99313.38;;;8.79;100.00
29839;BME280;18669;53.356;-1.464;2023-03-16T04:26:52;99305.59;;;8.76;100.00
29839;BME280;18669;53.356;-1.464;2023-03-16T04:29:38;99303.66;;;8.83;100.00
29839;BME280;18669;53.356;-1.464;2023-03-16T04:32:22;99296.56;;;8.85;100.00
29839;BME280;18669;53.356;-1.464;2023-03-16T04:35:09;99291.38;;;8.83;100.00
29839;BME280;18669;53.356;-1.464;2023-03-16T04:37:54;99282.59;;;8.84;100.00
29839;BME280;18669;53.356;-1.464;2023-03-16T04:40:39;99295.72;;;8.84;100.00
29839;BME280;18669;53.356;-1.464;2023-03-16T04:43:25;99287.75;;;8.87;100.00
29839;BME280;18669;53.356;-1.464;2023-03-16T04:46:10;99300.00;;;8.87;100.00
29839;BME280;18669;53.356;-1.464;2023-03-16T04:48:55;99294.72;;;8.88;100.00
29839;BME280;18669;53.356;-1.464;2023-03-16T04:51:41;99293.78;;;8.89;100.00
29839;BME280;18669;53.356;-1.464;2023-03-16T04:54:26;99287.53;;;8.93;100.00
29839;BME280;18669;53.356;-1.464;2023-03-16T04:57:11;99290.09;;;8.95;100.00
29839;BME280;18669;53.356;-1.464;2023-03-16T04:59:56;99287.44;;;8.97;100.00
29839;BME280;18669;53.356;-1.464;2023-03-16T05:02:41;99292.66;;;8.97;100.00
29839;BME280;18669;53.356;-1.464;2023-03-16T05:05:26;99293.47;;;8.99;100.00
29839;BME280;18669;53.356;-1.464;2023-03-16T05:08:11;99282.97;;;8.99;100.00
29839;BME280;18669;53.356;-1.464;2023-03-16T05:10:57;99297.63;;;9.04;100.00
29839;BME280;18669;53.356;-1.464;2023-03-16T05:13:42;99288.97;;;9.02;100.00
29839;BME280;18669;53.356;-1.464;2023-03-16T05:16:28;99282.59;;;9.09;100.00
29839;BME280;18669;53.356;-1.464;2023-03-16T05:19:13;99284.53;;;9.04;100.00
29839;BME280;18669;53.356;-1.464;2023-03-16T05:21:58;99280.88;;;9.08;100.00
29839;BME280;18669;53.356;-1.464;2023-03-16T05:24:43;99268.66;;;9.07;100.00
29839;BME280;18669;53.356;-1.464;2023-03-16T05:27:28;99271.13;;;9.12;100.00
29839;BME280;18669;53.356;-1.464;2023-03-16T05:30:14;99274.13;;;9.25;100.00
29839;BME280;18669;53.356;-1.464;2023-03-16T05:32:59;99273.44;;;9.20;100.00
29839;BME280;18669;53.356;-1.464;2023-03-16T05:35:44;99267.59;;;9.13;100.00
29839;BME280;18669;53.356;-1.464;2023-03-16T05:38:29;99273.44;;;9.20;100.00
29839;BME280;18669;53.356;-1.464;2023-03-16T05:41:15;99269.13;;;9.19;100.00
29839;BME280;18669;53.356;-1.464;2023-03-16T05:44:02;99265.47;;;9.23;100.00
29839;BME280;18669;53.356;-1.464;2023-03-16T05:46:48;99263.94;;;9.17;100.00
29839;BME280;18669;53.356;-1.464;2023-03-16T05:49:32;99263.72;;;9.23;100.00
29839;BME280;18669;53.356;-1.464;2023-03-16T05:52:17;99257.47;;;9.26;100.00
29839;BME280;18669;53.356;-1.464;2023-03-16T05:55:04;99273.19;;;9.28;100.00
29839;BME280;18669;53.356;-1.464;2023-03-16T05:57:49;99271.38;;;9.30;100.00
29839;BME280;18669;53.356;-1.464;2023-03-16T06:00:34;99266.03;;;9.31;100.00
29839;BME280;18669;53.356;-1.464;2023-03-16T06:03:19;99271.25;;;9.33;100.00
29839;BME280;18669;53.356;-1.464;2023-03-16T06:06:05;99265.09;;;9.34;100.00
29839;BME280;18669;53.356;-1.464;2023-03-16T06:08:50;99261.28;;;9.41;100.00
29839;BME280;18669;53.356;-1.464;2023-03-16T06:11:35;99266.53;;;9.41;100.00
29839;BME280;18669;53.356;-1.464;2023-03-16T06:14:20;99260.56;;;9.37;100.00
29839;BME280;18669;53.356;-1.464;2023-03-16T06:17:04;99255.31;;;9.37;100.00
29839;BME280;18669;53.356;-1.464;2023-03-16T06:19:49;99251.81;;;9.37;100.00
29839;BME280;18669;53.356;-1.464;2023-03-16T06:22:35;99238.97;;;9.31;100.00
29839;BME280;18669;53.356;-1.464;2023-03-16T06:25:20;99250.41;;;9.28;100.00
29839;BME280;18669;53.356;-1.464;2023-03-16T06:28:06;99258.41;;;9.25;100.00
29839;BME280;18669;53.356;-1.464;2023-03-16T06:30:56;99253.09;;;9.27;100.00
29839;BME280;18669;53.356;-1.464;2023-03-16T06:33:41;99261.03;;;9.25;100.00
29839;BME280;18669;53.356;-1.464;2023-03-16T06:36:26;99248.44;;;9.35;100.00
29839;BME280;18669;53.356;-1.464;2023-03-16T06:39:14;99247.53;;;9.36;100.00
29839;BME280;18669;53.356;-1.464;2023-03-16T06:41:59;99243.84;;;9.40;100.00
29839;BME280;18669;53.356;-1.464;2023-03-16T06:44:44;99243.84;;;9.40;100.00
29839;BME280;18669;53.356;-1.464;2023-03-16T06:47:29;99229.06;;;9.37;100.00
29839;BME280;18669;53.356;-1.464;2023-03-16T06:50:14;99237.75;;;9.39;100.00
29839;BME280;18669;53.356;-1.464;2023-03-16T06:52:58;99235.91;;;9.42;100.00
29839;BME280;18669;53.356;-1.464;2023-03-16T06:55:43;99234.13;;;9.42;100.00
29839;BME280;18669;53.356;-1.464;2023-03-16T06:58:28;99233.09;;;9.46;100.00
29839;BME280;18669;53.356;-1.464;2023-03-16T07:01:15;99214.97;;;9.40;100.00
29839;BME280;18669;53.356;-1.464;2023-03-16T07:04:00;99228.63;;;9.50;100.00
29839;BME280;18669;53.356;-1.464;2023-03-16T07:06:45;99231.34;;;9.47;100.00
29839;BME280;18669;53.356;-1.464;2023-03-16T07:09:30;99233.00;;;9.49;100.00
29839;BME280;18669;53.356;-1.464;2023-03-16T07:12:15;99215.63;;;9.45;100.00
29839;BME280;18669;53.356;-1.464;2023-03-16T07:15:00;99223.47;;;9.47;100.00
29839;BME280;18669;53.356;-1.464;2023-03-16T07:17:45;99223.25;;;9.53;100.00
29839;BME280;18669;53.356;-1.464;2023-03-16T07:20:30;99218.63;;;9.58;100.00
29839;BME280;18669;53.356;-1.464;2023-03-16T07:23:15;99212.13;;;9.68;100.00
29839;BME280;18669;53.356;-1.464;2023-03-16T07:26:00;99217.44;;;9.67;100.00
29839;BME280;18669;53.356;-1.464;2023-03-16T07:28:45;99217.97;;;9.75;100.00
29839;BME280;18669;53.356;-1.464;2023-03-16T07:31:31;99217.13;;;9.75;100.00
29839;BME280;18669;53.356;-1.464;2023-03-16T07:34:15;99211.88;;;9.75;100.00
29839;BME280;18669;53.356;-1.464;2023-03-16T07:37:01;99204.47;;;9.84;100.00
29839;BME280;18669;53.356;-1.464;2023-03-16T07:39:46;99220.78;;;9.93;100.00
29839;BME280;18669;53.356;-1.464;2023-03-16T07:42:31;99211.66;;;10.02;100.00
29839;BME280;18669;53.356;-1.464;2023-03-16T07:45:16;99228.31;;;10.02;100.00
29839;BME280;18669;53.356;-1.464;2023-03-16T07:48:01;99230.22;;;10.19;100.00
29839;BME280;18669;53.356;-1.464;2023-03-16T07:50:47;99225.34;;;10.30;100.00
29839;BME280;18669;53.356;-1.464;2023-03-16T07:53:32;99229.66;;;10.33;100.00
29839;BME280;18669;53.356;-1.464;2023-03-16T07:56:16;99234.78;;;10.36;100.00
29839;BME280;18669;53.356;-1.464;2023-03-16T07:59:02;99240.00;;;10.58;100.00
29839;BME280;18669;53.356;-1.464;2023-03-16T08:01:47;99240.78;;;10.40;100.00
29839;BME280;18669;53.356;-1.464;2023-03-16T08:04:32;99237.38;;;10.58;100.00
29839;BME280;18669;53.356;-1.464;2023-03-16T08:07:18;99233.16;;;10.75;100.00
29839;BME280;18669;53.356;-1.464;2023-03-16T08:10:03;99232.94;;;10.80;100.00
29839;BME280;18669;53.356;-1.464;2023-03-16T08:12:48;99224.56;;;10.71;100.00
29839;BME280;18669;53.356;-1.464;2023-03-16T08:15:33;99227.69;;;10.59;100.00
29839;BME280;18669;53.356;-1.464;2023-03-16T08:18:18;99230.41;;;10.57;100.00
29839;BME280;18669;53.356;-1.464;2023-03-16T08:21:03;99223.59;;;10.31;100.00
29839;BME280;18669;53.356;-1.464;2023-03-16T08:23:48;99219.84;;;10.37;100.00
29839;BME280;18669;53.356;-1.464;2023-03-16T08:26:34;99210.88;;;10.42;100.00
29839;BME280;18669;53.356;-1.464;2023-03-16T08:29:19;99214.44;;;10.41;100.00
29839;BME280;18669;53.356;-1.464;2023-03-16T08:32:05;99212.66;;;10.42;100.00
29839;BME280;18669;53.356;-1.464;2023-03-16T08:34:50;99207.19;;;10.47;100.00
29839;BME280;18669;53.356;-1.464;2023-03-16T08:37:35;99214.75;;;10.54;100.00
29839;BME280;18669;53.356;-1.464;2023-03-16T08:40:21;99204.47;;;10.69;100.00
29839;BME280;18669;53.356;-1.464;2023-03-16T08:43:05;99219.00;;;10.78;100.00
29839;BME280;18669;53.356;-1.464;2023-03-16T08:45:50;99220.53;;;10.83;100.00
29839;BME280;18669;53.356;-1.464;2023-03-16T08:48:35;99219.00;;;11.17;100.00
29839;BME280;18669;53.356;-1.464;2023-03-16T08:51:20;99226.66;;;11.22;100.00
29839;BME280;18669;53.356;-1.464;2023-03-16T08:54:05;99214.38;;;11.23;100.00
29839;BME280;18669;53.356;-1.464;2023-03-16T08:56:50;99218.91;;;11.19;100.00
29839;BME280;18669;53.356;-1.464;2023-03-16T08:59:35;99214.22;;;11.07;100.00
29839;BME280;18669;53.356;-1.464;2023-03-16T09:02:20;99218.06;;;10.99;100.00
29839;BME280;18669;53.356;-1.464;2023-03-16T09:05:08;99228.56;;;10.99;100.00
29839;BME280;18669;53.356;-1.464;2023-03-16T09:07:53;99227.34;;;10.87;100.00
29839;BME280;18669;53.356;-1.464;2023-03-16T09:10:38;99214.59;;;10.78;100.00
29839;BME280;18669;53.356;-1.464;2023-03-16T09:13:23;99219.59;;;10.84;100.00
29839;BME280;18669;53.356;-1.464;2023-03-16T09:16:09;99208.56;;;10.76;100.00
29839;BME280;18669;53.356;-1.464;2023-03-16T09:18:55;99212.75;;;10.80;100.00
29839;BME280;18669;53.356;-1.464;2023-03-16T09:21:40;99201.84;;;10.89;100.00
29839;BME280;18669;53.356;-1.464;2023-03-16T09:24:25;99200.00;;;10.92;100.00
29839;BME280;18669;53.356;-1.464;2023-03-16T09:27:10;99209.13;;;10.83;100.00
29839;BME280;18669;53.356;-1.464;2023-03-16T09:29:55;99211.09;;;10.78;100.00
29839;BME280;18669;53.356;-1.464;2023-03-16T09:32:40;99222.63;;;10.75;100.00
29839;BME280;18669;53.356;-1.464;2023-03-16T09:35:25;99213.28;;;10.68;100.00
29839;BME280;18669;53.356;-1.464;2023-03-16T09:38:10;99213.72;;;10.78;100.00
29839;BME280;18669;53.356;-1.464;2023-03-16T09:41:01;99216.97;;;10.84;100.00
29839;BME280;18669;53.356;-1.464;2023-03-16T09:44:08;99229.34;;;10.82;100.00
29839;BME280;18669;53.356;-1.464;2023-03-16T09:46:56;99236.03;;;10.69;100.00
29839;BME280;18669;53.356;-1.464;2023-03-16T09:49:46;99228.63;;;10.58;100.00
29839;BME280;18669;53.356;-1.464;2023-03-16T09:52:43;99226.66;;;10.63;100.00
29839;BME280;18669;53.356;-1.464;2023-03-16T09:55:34;99218.09;;;10.58;100.00
29839;BME280;18669;53.356;-1.464;2023-03-16T09:58:20;99224.41;;;10.54;100.00
29839;BME280;18669;53.356;-1.464;2023-03-16T10:01:33;99224.06;;;10.62;100.00
29839;BME280;18669;53.356;-1.464;2023-03-16T10:04:44;99223.84;;;10.47;100.00
29839;BME280;18669;53.356;-1.464;2023-03-16T10:17:54;99200.13;;;10.88;100.00
29839;BME280;18669;53.356;-1.464;2023-03-16T10:20:41;99207.75;;;10.74;100.00
29839;BME280;18669;53.356;-1.464;2023-03-16T10:23:30;99210.41;;;10.74;100.00
29839;BME280;18669;53.356;-1.464;2023-03-16T10:26:23;99207.84;;;10.72;100.00
29839;BME280;18669;53.356;-1.464;2023-03-16T10:29:12;99206.19;;;10.70;100.00
29839;BME280;18669;53.356;-1.464;2023-03-16T10:32:04;99196.53;;;10.70;100.00
29839;BME280;18669;53.356;-1.464;2023-03-16T10:34:56;99198.69;;;10.81;100.00
29839;BME280;18669;53.356;-1.464;2023-03-16T10:37:42;99194.13;;;10.85;100.00
29839;BME280;18669;53.356;-1.464;2023-03-16T10:40:31;99180.97;;;10.85;100.00
29839;BME280;18669;53.356;-1.464;2023-03-16T10:43:19;99177.22;;;10.71;100.00
29839;BME280;18669;53.356;-1.464;2023-03-16T10:46:04;99173.94;;;10.85;100.00
29839;BME280;18669;53.356;-1.464;2023-03-16T10:48:57;99181.28;;;11.17;100.00
29839;BME280;18669;53.356;-1.464;2023-03-16T10:51:44;99170.56;;;11.02;100.00
29839;BME280;18669;53.356;-1.464;2023-03-16T10:54:33;99172.69;;;11.13;100.00
29839;BME280;18669;53.356;-1.464;2023-03-16T11:00:11;99171.09;;;11.09;100.00
29839;BME280;18669;53.356;-1.464;2023-03-16T11:03:25;99171.47;;;11.21;100.00
29839;BME280;18669;53.356;-1.464;2023-03-16T11:06:28;99168.06;;;11.18;100.00
29839;BME280;18669;53.356;-1.464;2023-03-16T11:09:22;99151.72;;;11.12;100.00
29839;BME280;18669;53.356;-1.464;2023-03-16T11:12:25;99157.72;;;11.33;100.00
29839;BME280;18669;53.356;-1.464;2023-03-16T11:15:12;99165.63;;;11.14;100.00
29839;BME280;18669;53.356;-1.464;2023-03-16T11:17:57;99156.47;;;11.03;100.00
29839;BME280;18669;53.356;-1.464;2023-03-16T11:20:42;99162.56;;;11.23;100.00
29839;BME280;18669;53.356;-1.464;2023-03-16T11:23:32;99165.03;;;11.45;100.00
29839;BME280;18669;53.356;-1.464;2023-03-16T11:26:30;99177.13;;;11.49;100.00
29839;BME280;18669;53.356;-1.464;2023-03-16T11:29:31;99172.72;;;11.50;100.00
29839;BME280;18669;53.356;-1.464;2023-03-16T11:32:25;99167.94;;;11.58;100.00
29839;BME280;18669;53.356;-1.464;2023-03-16T11:35:21;99167.22;;;11.55;100.00
29839;BME280;18669;53.356;-1.464;2023-03-16T11:38:15;99177.78;;;11.55;100.00
29839;BME280;18669;53.356;-1.464;2023-03-16T11:41:18;99178.16;;;11.47;100.00
29839;BME280;18669;53.356;-1.464;2023-03-16T11:50:18;99166.53;;;11.32;100.00
29839;BME280;18669;53.356;-1.464;2023-03-16T11:53:59;99161.72;;;11.42;100.00
29839;BME280;18669;53.356;-1.464;2023-03-16T11:56:49;99152.16;;;11.39;100.00
29839;BME280;18669;53.356;-1.464;2023-03-16T12:12:18;99120.25;;;11.82;100.00
29839;BME280;18669;53.356;-1.464;2023-03-16T12:16:01;99124.72;;;11.98;100.00
29839;BME280;18669;53.356;-1.464;2023-03-16T12:18:33;99133.16;;;11.69;100.00
29839;BME280;18669;53.356;-1.464;2023-03-16T12:21:32;99112.25;;;11.84;100.00
29839;BME280;18669;53.356;-1.464;2023-03-16T12:24:25;99111.56;;;11.98;100.00
29839;BME280;18669;53.356;-1.464;2023-03-16T12:27:19;99115.91;;;11.99;100.00
29839;BME280;18669;53.356;-1.464;2023-03-16T12:39:05;99125.44;;;12.01;100.00
29839;BME280;18669;53.356;-1.464;2023-03-16T12:48:33;99133.25;;;12.20;100.00
29839;BME280;18669;53.356;-1.464;2023-03-16T12:51:39;99145.47;;;12.23;100.00
29839;BME280;18669;53.356;-1.464;2023-03-16T12:54:25;99139.25;;;12.06;100.00
29839;BME280;18669;53.356;-1.464;2023-03-16T12:57:15;99155.22;;;12.03;100.00
29839;BME280;18669;53.356;-1.464;2023-03-16T13:00:00;99157.97;;;11.83;100.00
29839;BME280;18669;53.356;-1.464;2023-03-16T13:02:55;99149.06;;;11.85;100.00
29839;BME280;18669;53.356;-1.464;2023-03-16T13:05:48;99148.59;;;11.94;100.00
29839;BME280;18669;53.356;-1.464;2023-03-16T13:08:47;99144.88;;;11.99;100.00
29839;BME280;18669;53.356;-1.464;2023-03-16T13:11:42;99151.53;;;11.88;100.00
29839;BME280;18669;53.356;-1.464;2023-03-16T13:14:39;99138.59;;;11.84;100.00
29839;BME280;18669;53.356;-1.464;2023-03-16T13:17:29;99152.94;;;11.78;100.00
29839;BME280;18669;53.356;-1.464;2023-03-16T13:20:31;99139.19;;;11.71;100.00
29839;BME280;18669;53.356;-1.464;2023-03-16T13:26:17;99122.91;;;12.00;100.00
29839;BME280;18669;53.356;-1.464;2023-03-16T13:32:16;99121.13;;;12.00;100.00
29839;BME280;18669;53.356;-1.464;2023-03-16T13:35:04;99126.75;;;11.92;100.00
29839;BME280;18669;53.356;-1.464;2023-03-16T13:37:49;99111.66;;;11.96;100.00
29839;BME280;18669;53.356;-1.464;2023-03-16T13:40:34;99108.06;;;11.97;100.00
29839;BME280;18669;53.356;-1.464;2023-03-16T13:43:26;99103.44;;;12.02;100.00
29839;BME280;18669;53.356;-1.464;2023-03-16T13:46:18;99110.47;;;12.19;100.00
29839;BME280;18669;53.356;-1.464;2023-03-16T13:49:04;99113.03;;;12.21;100.00
29839;BME280;18669;53.356;-1.464;2023-03-16T13:51:49;99116.41;;;12.07;100.00
29839;BME280;18669;53.356;-1.464;2023-03-16T13:54:35;99117.38;;;12.22;100.00
29839;BME280;18669;53.356;-1.464;2023-03-16T13:57:24;99127.78;;;12.25;100.00
29839;BME280;18669;53.356;-1.464;2023-03-16T14:00:23;99128.38;;;12.30;100.00
29839;BME280;18669;53.356;-1.464;2023-03-16T14:03:18;99127.47;;;12.31;100.00
29839;BME280;18669;53.356;-1.464;2023-03-16T14:06:05;99124.63;;;12.18;100.00
29839;BME280;18669;53.356;-1.464;2023-03-16T14:08:50;99134.75;;;12.26;100.00
29839;BME280;18669;53.356;-1.464;2023-03-16T14:11:36;99110.34;;;12.05;100.00
29839;BME280;18669;53.356;-1.464;2023-03-16T14:14:31;99124.13;;;12.28;100.00
29839;BME280;18669;53.356;-1.464;2023-03-16T14:17:20;99111.03;;;12.08;100.00
29839;BME280;18669;53.356;-1.464;2023-03-16T14:20:08;99110.25;;;12.24;100.00
29839;BME280;18669;53.356;-1.464;2023-03-16T14:23:01;99113.41;;;12.31;100.00
29839;BME280;18669;53.356;-1.464;2023-03-16T14:25:47;99102.13;;;12.45;100.00
29839;BME280;18669;53.356;-1.464;2023-03-16T14:28:32;99103.50;;;12.52;100.00
29839;BME280;18669;53.356;-1.464;2023-03-16T14:31:19;99101.19;;;12.46;100.00
29839;BME280;18669;53.356;-1.464;2023-03-16T14:34:05;99115.03;;;12.67;100.00
29839;BME280;18669;53.356;-1.464;2023-03-16T14:36:52;99116.03;;;12.48;100.00
29839;BME280;18669;53.356;-1.464;2023-03-16T14:39:37;99090.63;;;12.79;100.00
29839;BME280;18669;53.356;-1.464;2023-03-16T14:42:25;99090.28;;;13.34;100.00
29839;BME280;18669;53.356;-1.464;2023-03-16T14:45:13;99085.78;;;13.97;100.00
29839;BME280;18669;53.356;-1.464;2023-03-16T14:48:13;99107.81;;;14.12;100.00
29839;BME280;18669;53.356;-1.464;2023-03-16T14:51:01;99082.53;;;13.77;100.00
29839;BME280;18669;53.356;-1.464;2023-03-16T14:53:46;99096.06;;;13.24;100.00
29839;BME280;18669;53.356;-1.464;2023-03-16T14:56:34;99091.56;;;13.10;100.00
29839;BME280;18669;53.356;-1.464;2023-03-16T14:59:20;99110.13;;;12.93;100.00
29839;BME280;18669;53.356;-1.464;2023-03-16T15:02:14;99100.91;;;12.84;100.00
29839;BME280;18669;53.356;-1.464;2023-03-16T15:05:01;99105.00;;;12.90;100.00
29839;BME280;18669;53.356;-1.464;2023-03-16T15:07:48;99115.31;;;12.94;100.00
29839;BME280;18669;53.356;-1.464;2023-03-16T15:10:36;99118.19;;;12.74;100.00
29839;BME280;18669;53.356;-1.464;2023-03-16T15:13:21;99126.88;;;12.76;100.00
29839;BME280;18669;53.356;-1.464;2023-03-16T15:16:28;99120.50;;;12.80;100.00
29839;BME280;18669;53.356;-1.464;2023-03-16T15:19:13;99126.03;;;12.42;100.00
29839;BME280;18669;53.356;-1.464;2023-03-16T15:21:59;99118.09;;;12.59;100.00
29839;BME280;18669;53.356;-1.464;2023-03-16T15:24:45;99112.34;;;12.51;100.00
29839;BME280;18669;53.356;-1.464;2023-03-16T15:27:34;99106.66;;;12.59;100.00
29839;BME280;18669;53.356;-1.464;2023-03-16T15:30:25;99112.66;;;12.62;100.00
29839;BME280;18669;53.356;-1.464;2023-03-16T15:33:11;99110.34;;;12.56;100.00